createdAt,value
2018-05-17T00:01:04.142Z,10.20
2018-05-17T00:03:42.278Z,10.20
2018-05-17T00:06:10.599Z,10.20
2018-05-17T00:08:41.745Z,10.10
2018-05-17T00:11:12.780Z,9.90
2018-05-17T00:13:43.915Z,9.80
2018-05-17T00:16:14.955Z,9.80
2018-05-17T00:18:45.964Z,9.90
2018-05-17T00:21:15.369Z,9.90
2018-05-17T00:23:48.143Z,9.80
2018-05-17T00:26:22.131Z,9.90
2018-05-17T00:29:02.786Z,9.80
2018-05-17T00:31:39.604Z,9.80
2018-05-17T00:34:11.664Z,9.80
2018-05-17T00:36:39.941Z,9.70
2018-05-17T00:39:13.481Z,9.70
2018-05-17T00:41:46.315Z,9.60
2018-05-17T00:44:18.376Z,9.60
2018-05-17T00:46:53.735Z,9.70
2018-05-17T00:49:27.873Z,9.70
2018-05-17T00:52:06.671Z,9.70
2018-05-17T00:54:42.547Z,9.60
2018-05-17T00:57:21.428Z,9.50
2018-05-17T00:59:53.529Z,9.50
2018-05-17T01:02:28.004Z,9.40
2018-05-17T01:05:02.198Z,9.30
2018-05-17T01:07:33.182Z,9.20
2018-05-17T01:10:01.470Z,9.20
2018-05-17T01:12:29.772Z,9.30
2018-05-17T01:15:05.192Z,9.10
2018-05-17T01:17:41.994Z,9.10
2018-05-17T01:20:13.015Z,8.90
2018-05-17T01:22:45.914Z,8.90
2018-05-17T01:25:18.571Z,8.80
2018-05-17T01:27:56.343Z,8.80
2018-05-17T01:30:28.321Z,8.70
2018-05-17T01:32:58.591Z,8.80
2018-05-17T01:35:39.799Z,8.80
2018-05-17T01:38:26.014Z,8.80
2018-05-17T01:41:15.791Z,8.90
2018-05-17T01:43:45.170Z,9.00
2018-05-17T01:46:15.456Z,9.20
2018-05-17T01:48:47.523Z,9.30
2018-05-17T01:51:17.515Z,9.50
2018-05-17T01:53:49.402Z,9.50
2018-05-17T01:56:18.662Z,9.60
2018-05-17T01:58:57.699Z,9.70
2018-05-17T02:01:30.803Z,9.90
2018-05-17T02:03:59.117Z,10.10
2018-05-17T02:06:40.514Z,10.30
2018-05-17T02:09:19.809Z,10.30
2018-05-17T02:11:51.552Z,10.40
2018-05-17T02:14:19.888Z,10.40
2018-05-17T02:16:49.338Z,10.40
2018-05-17T02:19:27.703Z,10.40
2018-05-17T02:21:56.035Z,10.40
2018-05-17T02:24:24.289Z,10.40
2018-05-17T02:26:56.439Z,10.30
2018-05-17T02:29:24.786Z,10.20
2018-05-17T02:31:58.842Z,10.20
2018-05-17T02:34:28.219Z,10.10
2018-05-17T02:36:56.798Z,10.20
2018-05-17T02:39:25.310Z,10.20
2018-05-17T02:41:58.551Z,10.30
2018-05-17T02:44:34.656Z,10.40
2018-05-17T02:47:08.099Z,10.40
2018-05-17T02:49:45.846Z,10.60
2018-05-17T02:52:20.638Z,10.60
2018-05-17T02:54:56.509Z,10.80
2018-05-17T02:57:36.293Z,10.70
2018-05-17T03:00:08.455Z,10.80
2018-05-17T03:02:41.320Z,10.80
2018-05-17T03:05:13.466Z,10.90
2018-05-17T03:07:44.535Z,11.00
2018-05-17T03:10:19.603Z,11.00
2018-05-17T03:12:49.958Z,11.00
2018-05-17T03:15:20.954Z,10.90
2018-05-17T03:17:50.305Z,10.90
2018-05-17T03:20:24.414Z,11.00
2018-05-17T03:23:01.544Z,11.00
2018-05-17T03:25:31.853Z,11.00
2018-05-17T03:28:07.019Z,11.00
2018-05-17T03:30:43.779Z,11.00
2018-05-17T03:33:16.902Z,11.00
2018-05-17T03:35:48.665Z,11.00
2018-05-17T03:38:16.935Z,11.00
2018-05-17T03:40:45.248Z,10.90
2018-05-17T03:43:17.059Z,10.90
2018-05-17T03:45:46.395Z,10.90
2018-05-17T03:48:15.459Z,10.80
2018-05-17T03:50:44.765Z,10.80
2018-05-17T03:53:23.171Z,10.80
2018-05-17T03:55:52.558Z,10.80
2018-05-17T03:58:24.675Z,10.80
2018-05-17T04:04:20.282Z,10.90
2018-05-17T04:06:54.566Z,10.90
2018-05-17T04:09:27.717Z,10.90
2018-05-17T04:11:58.732Z,11.00
2018-05-17T04:14:35.020Z,11.00
2018-05-17T04:17:03.527Z,11.00
2018-05-17T04:19:35.130Z,11.10
2018-05-17T04:22:04.451Z,11.20
2018-05-17T04:24:35.629Z,11.30
2018-05-17T04:27:16.758Z,11.30
2018-05-17T04:29:45.083Z,11.30
2018-05-17T04:32:37.619Z,11.30
2018-05-17T04:35:11.202Z,11.30
2018-05-17T04:37:43.279Z,11.30
2018-05-17T04:40:18.047Z,11.30
2018-05-17T04:42:51.587Z,11.30
2018-05-17T04:45:25.003Z,11.30
2018-05-17T04:47:54.347Z,11.30
2018-05-17T04:50:23.399Z,11.30
2018-05-17T04:52:56.681Z,11.30
2018-05-17T04:55:28.008Z,11.30
2018-05-17T04:57:57.607Z,11.30
2018-05-17T05:00:27.915Z,11.30
2018-05-17T05:02:56.297Z,11.30
2018-05-17T05:05:30.553Z,11.20
2018-05-17T05:08:05.362Z,11.20
2018-05-17T05:10:39.312Z,11.20
2018-05-17T05:13:13.059Z,11.10
2018-05-17T05:15:52.186Z,11.10
2018-05-17T05:18:39.018Z,11.00
2018-05-17T05:21:11.632Z,11.00
2018-05-17T05:23:40.938Z,11.00
2018-05-17T05:26:11.335Z,11.00
2018-05-17T05:28:58.386Z,11.00
2018-05-17T05:31:34.429Z,11.00
2018-05-17T05:34:03.762Z,11.00
2018-05-17T05:36:38.893Z,11.00
2018-05-17T05:39:13.071Z,11.00
2018-05-17T05:41:44.079Z,10.90
2018-05-17T05:44:14.442Z,10.90
2018-05-17T05:46:49.217Z,11.00
2018-05-17T05:49:18.548Z,11.00
2018-05-17T05:52:01.696Z,11.00
2018-05-17T05:54:38.283Z,11.10
2018-05-17T05:57:15.010Z,11.10
2018-05-17T05:59:45.334Z,11.10
2018-05-17T06:02:27.388Z,11.20
2018-05-17T06:04:58.410Z,11.40
2018-05-17T06:07:28.500Z,11.40
2018-05-17T06:09:56.752Z,11.40
2018-05-17T06:12:25.063Z,11.40
2018-05-17T06:14:55.367Z,11.40
2018-05-17T06:17:23.656Z,11.40
2018-05-17T06:19:58.254Z,11.50
2018-05-17T06:22:26.539Z,11.60
2018-05-17T06:24:54.812Z,11.70
2018-05-17T06:27:23.115Z,11.70
2018-05-17T06:29:51.368Z,11.70
2018-05-17T06:32:21.603Z,11.60
2018-05-17T06:34:50.956Z,11.60
2018-05-17T06:37:21.233Z,11.60
2018-05-17T06:40:12.955Z,11.50
2018-05-17T06:42:45.737Z,11.50
2018-05-17T06:45:21.181Z,11.60
2018-05-17T06:47:50.483Z,11.60
2018-05-17T06:50:22.053Z,11.60
2018-05-17T06:52:51.467Z,11.70
2018-05-17T06:55:20.713Z,11.80
2018-05-17T06:57:55.248Z,11.70
2018-05-17T07:00:24.808Z,11.70
2018-05-17T07:03:01.937Z,11.80
2018-05-17T07:05:48.355Z,11.70
2018-05-17T07:08:26.542Z,11.80
2018-05-17T07:11:09.015Z,11.80
2018-05-17T07:13:38.315Z,11.70
2018-05-17T07:16:08.378Z,11.70
2018-05-17T07:18:42.039Z,11.70
2018-05-17T07:21:19.355Z,11.70
2018-05-17T07:23:51.376Z,11.60
2018-05-17T07:26:22.362Z,11.70
2018-05-17T07:28:59.359Z,11.60
2018-05-17T07:31:35.888Z,11.60
2018-05-17T07:34:04.247Z,11.60
2018-05-17T07:36:40.338Z,11.60
2018-05-17T07:39:09.684Z,11.60
2018-05-17T07:44:42.696Z,11.80
2018-05-17T07:47:21.216Z,11.80
2018-05-17T07:49:53.280Z,11.90
2018-05-17T07:52:25.084Z,12.10
2018-05-17T07:54:53.403Z,12.40
2018-05-17T07:57:26.616Z,12.50
2018-05-17T07:59:55.792Z,12.30
2018-05-17T08:02:34.896Z,12.30
2018-05-17T08:05:04.767Z,12.10
2018-05-17T08:07:58.818Z,12.00
2018-05-17T08:10:27.065Z,11.90
2018-05-17T08:12:57.308Z,11.90
2018-05-17T08:15:31.056Z,11.90
2018-05-17T08:18:07.155Z,11.90
2018-05-17T08:20:40.187Z,11.90
2018-05-17T08:23:15.655Z,11.90
2018-05-17T08:26:01.933Z,11.80
2018-05-17T08:28:30.978Z,11.90
2018-05-17T08:31:29.115Z,11.90
2018-05-17T08:33:57.393Z,11.90
2018-05-17T08:36:39.042Z,12.00
2018-05-17T08:39:11.909Z,12.10
2018-05-17T08:41:54.998Z,12.00
2018-05-17T08:44:23.713Z,12.00
2018-05-17T08:46:52.051Z,11.90
2018-05-17T08:49:27.128Z,11.90
2018-05-17T08:51:57.622Z,11.90
2018-05-17T08:54:32.957Z,12.00
2018-05-17T08:57:11.517Z,12.10
2018-05-17T08:59:44.915Z,12.10
2018-05-17T09:02:18.839Z,12.30
2018-05-17T09:04:47.134Z,12.20
2018-05-17T09:07:15.403Z,12.40
2018-05-17T09:09:47.152Z,12.80
2018-05-17T09:12:29.511Z,12.80
2018-05-17T09:14:57.896Z,12.90
2018-05-17T09:17:33.199Z,13.00
2018-05-17T09:20:16.697Z,12.90
2018-05-17T09:22:44.995Z,12.90
2018-05-17T09:25:19.287Z,13.00
2018-05-17T09:28:01.652Z,13.10
2018-05-17T09:30:38.770Z,13.50
2018-05-17T09:33:12.123Z,13.50
2018-05-17T09:35:44.939Z,13.70
2018-05-17T09:38:23.375Z,13.70
2018-05-17T09:40:53.603Z,14.00
2018-05-17T09:43:21.869Z,14.10
2018-05-17T09:46:00.806Z,14.00
2018-05-17T09:48:29.109Z,13.80
2018-05-17T09:50:57.356Z,13.70
2018-05-17T09:53:29.160Z,13.80
2018-05-17T09:56:08.410Z,14.20
2018-05-17T09:58:43.896Z,14.10
2018-05-17T10:01:15.284Z,14.30
2018-05-17T10:03:44.360Z,14.10
2018-05-17T10:06:17.699Z,14.00
2018-05-17T10:08:46.190Z,14.00
2018-05-17T10:11:14.386Z,14.00
2018-05-17T10:14:01.268Z,14.00
2018-05-17T10:16:33.603Z,13.90
2018-05-17T10:19:13.928Z,13.70
2018-05-17T10:21:42.207Z,13.60
2018-05-17T10:27:16.038Z,13.60
2018-05-17T10:29:46.394Z,13.60
2018-05-17T10:32:17.391Z,13.60
2018-05-17T10:34:49.683Z,13.50
2018-05-17T10:37:19.691Z,13.80
2018-05-17T10:39:54.729Z,13.80
2018-05-17T10:42:24.030Z,13.70
2018-05-17T10:44:53.318Z,13.70
2018-05-17T10:47:35.470Z,13.60
2018-05-17T10:50:12.395Z,13.40
2018-05-17T10:52:46.534Z,13.40
2018-05-17T10:55:25.913Z,13.30
2018-05-17T10:57:56.215Z,13.20
2018-05-17T11:00:26.187Z,13.00
2018-05-17T11:02:55.503Z,13.00
2018-05-17T11:05:29.226Z,13.00
2018-05-17T11:07:59.585Z,13.00
2018-05-17T11:10:31.711Z,13.00
2018-05-17T11:13:13.941Z,13.00
2018-05-17T11:15:47.522Z,12.90
2018-05-17T11:18:16.791Z,12.90
2018-05-17T11:20:51.690Z,12.90
2018-05-17T11:23:20.021Z,13.00
2018-05-17T11:25:54.638Z,12.90
2018-05-17T11:28:37.073Z,12.90
2018-05-17T11:31:07.311Z,13.30
2018-05-17T11:33:37.735Z,13.30
2018-05-17T11:36:08.763Z,13.30
2018-05-17T11:38:37.832Z,13.30
2018-05-17T11:41:09.503Z,13.30
2018-05-17T11:43:41.223Z,13.30
2018-05-17T11:46:09.654Z,13.50
2018-05-17T11:48:40.711Z,14.00
2018-05-17T11:51:12.122Z,14.00
2018-05-17T11:53:54.761Z,13.90
2018-05-17T11:56:31.437Z,13.80
2018-05-17T11:59:04.195Z,13.40
2018-05-17T12:01:49.983Z,13.40
2018-05-17T12:04:22.955Z,13.40
2018-05-17T12:06:52.272Z,13.50
2018-05-17T12:09:21.363Z,13.80
2018-05-17T12:11:52.920Z,13.80
2018-05-17T12:14:21.453Z,13.80
2018-05-17T12:17:03.025Z,13.90
2018-05-17T12:19:34.133Z,14.00
2018-05-17T12:22:05.287Z,14.10
2018-05-17T12:24:44.272Z,14.30
2018-05-17T12:27:13.756Z,14.20
2018-05-17T12:29:45.153Z,14.30
2018-05-17T12:32:16.166Z,14.40
2018-05-17T12:34:44.556Z,14.70
2018-05-17T12:37:13.663Z,15.00
2018-05-17T12:39:46.368Z,15.30
2018-05-17T12:42:15.495Z,15.50
2018-05-17T12:44:50.671Z,15.50
2018-05-17T12:47:19.014Z,16.30
2018-05-17T12:49:49.328Z,16.90
2018-05-17T12:52:18.604Z,17.00
2018-05-17T12:54:48.386Z,16.90
2018-05-17T12:57:17.121Z,16.60
2018-05-17T12:59:52.222Z,16.40
2018-05-17T13:02:22.318Z,16.40
2018-05-17T13:04:52.446Z,16.40
2018-05-17T13:07:23.267Z,16.50
2018-05-17T13:09:52.400Z,16.50
2018-05-17T13:12:20.764Z,16.90
2018-05-17T13:14:53.379Z,17.50
2018-05-17T13:17:22.847Z,18.10
2018-05-17T13:19:53.838Z,17.70
2018-05-17T13:22:23.877Z,17.60
2018-05-17T13:25:00.156Z,17.80
2018-05-17T13:27:35.621Z,17.60
2018-05-17T13:30:10.570Z,16.30
2018-05-17T13:32:40.005Z,16.20
2018-05-17T13:35:16.868Z,15.90
2018-05-17T13:37:51.758Z,15.50
2018-05-17T13:40:25.868Z,15.10
2018-05-17T13:42:55.483Z,14.90
2018-05-17T13:45:28.219Z,14.60
2018-05-17T13:48:01.897Z,14.50
2018-05-17T13:50:34.733Z,14.50
2018-05-17T13:53:03.941Z,14.40
2018-05-17T13:55:37.131Z,14.50
2018-05-17T13:58:05.463Z,14.40
2018-05-17T14:00:34.711Z,14.50
2018-05-17T14:03:02.996Z,14.60
2018-05-17T14:05:44.120Z,14.80
2018-05-17T14:08:12.451Z,14.90
2018-05-17T14:10:41.056Z,15.10
2018-05-17T14:13:13.041Z,15.30
2018-05-17T14:15:41.359Z,15.70
2018-05-17T14:18:13.567Z,16.30
2018-05-17T14:20:52.850Z,17.30
2018-05-17T14:23:21.156Z,17.30
2018-05-17T14:25:56.138Z,17.40
2018-05-17T14:28:24.485Z,17.40
2018-05-17T14:30:54.501Z,17.00
2018-05-17T14:33:31.594Z,17.10
2018-05-17T14:36:05.300Z,18.70
2018-05-17T14:38:39.927Z,18.60
2018-05-17T14:41:13.795Z,19.60
2018-05-17T14:43:53.132Z,19.60
2018-05-17T14:46:21.505Z,18.50
2018-05-17T14:48:55.137Z,18.40
2018-05-17T14:51:27.895Z,18.10
2018-05-17T14:54:07.215Z,18.10
2018-05-17T14:56:35.495Z,17.80
2018-05-17T14:59:11.438Z,17.40
2018-05-17T15:01:39.771Z,17.40
2018-05-17T15:04:08.821Z,17.50
2018-05-17T15:06:39.087Z,17.40
2018-05-17T15:09:08.253Z,17.80
2018-05-17T15:11:41.271Z,17.80
2018-05-17T15:14:16.742Z,17.20
2018-05-17T15:16:55.804Z,17.20
2018-05-17T15:19:36.634Z,17.30
2018-05-17T15:22:05.122Z,17.00
2018-05-17T15:24:41.013Z,17.60
2018-05-17T15:27:15.656Z,17.80
2018-05-17T15:30:02.211Z,18.40
2018-05-17T15:32:30.571Z,18.60
2018-05-17T15:35:06.890Z,18.80
2018-05-17T15:37:54.462Z,18.50
2018-05-17T15:40:31.570Z,18.30
2018-05-17T15:43:03.700Z,18.30
2018-05-17T15:45:34.712Z,18.10
2018-05-17T15:48:08.759Z,18.10
2018-05-17T15:50:38.018Z,18.00
2018-05-17T15:53:11.531Z,18.30
2018-05-17T15:55:45.972Z,18.50
2018-05-17T15:58:19.953Z,18.80
2018-05-17T16:00:52.295Z,18.80
2018-05-17T16:03:25.727Z,19.30
2018-05-17T16:06:18.078Z,18.90
2018-05-17T16:08:58.531Z,18.60
2018-05-17T16:11:38.512Z,18.90
2018-05-17T16:14:16.925Z,19.30
2018-05-17T16:16:54.162Z,20.10
2018-05-17T16:19:26.072Z,20.00
2018-05-17T16:21:59.068Z,18.90
2018-05-17T16:24:31.725Z,18.10
2018-05-17T16:27:07.101Z,18.10
2018-05-17T16:29:39.448Z,17.90
2018-05-17T16:32:14.980Z,17.40
2018-05-17T16:34:45.381Z,17.40
2018-05-17T16:37:13.677Z,17.10
2018-05-17T16:39:49.102Z,17.10
2018-05-17T16:42:23.105Z,17.10
2018-05-17T16:44:56.666Z,16.70
2018-05-17T16:47:33.072Z,16.70
2018-05-17T16:50:15.735Z,16.60
2018-05-17T16:52:58.455Z,16.40
2018-05-17T16:55:46.857Z,16.40
2018-05-17T16:58:17.083Z,16.30
2018-05-17T17:00:50.169Z,16.20
2018-05-17T17:03:23.058Z,16.20
2018-05-17T17:05:52.375Z,16.20
2018-05-17T17:08:20.777Z,16.20
2018-05-17T17:11:08.797Z,16.10
2018-05-17T17:13:40.938Z,16.10
2018-05-17T17:16:10.386Z,16.10
2018-05-17T17:18:43.552Z,16.00
2018-05-17T17:21:13.108Z,16.00
2018-05-17T17:23:48.439Z,16.00
2018-05-17T17:26:24.695Z,15.90
2018-05-17T17:28:55.978Z,16.00
2018-05-17T17:31:31.192Z,16.00
2018-05-17T17:34:06.757Z,16.20
2018-05-17T17:36:36.004Z,16.20
2018-05-17T17:39:17.264Z,16.10
2018-05-17T17:41:50.387Z,16.30
2018-05-17T17:44:19.568Z,16.30
2018-05-17T17:47:03.058Z,16.30
2018-05-17T17:49:32.433Z,16.10
2018-05-17T17:52:10.806Z,15.80
2018-05-17T17:54:39.489Z,15.60
2018-05-17T17:57:09.590Z,15.60
2018-05-17T17:59:59.419Z,15.50
2018-05-17T18:02:33.439Z,15.50
2018-05-17T18:05:08.056Z,15.30
2018-05-17T18:07:40.703Z,15.30
2018-05-17T18:10:11.028Z,15.20
2018-05-17T18:12:54.293Z,15.20
2018-05-17T18:15:36.413Z,15.10
2018-05-17T18:18:06.716Z,15.10
2018-05-17T18:20:35.957Z,14.90
2018-05-17T18:23:14.923Z,14.90
2018-05-17T18:25:44.356Z,14.80
2018-05-17T18:28:20.932Z,14.70
2018-05-17T18:31:04.634Z,14.60
2018-05-17T18:33:38.493Z,14.60
2018-05-17T18:36:16.839Z,14.50
2018-05-17T18:38:53.673Z,14.50
2018-05-17T18:41:36.000Z,14.50
2018-05-17T18:44:31.030Z,14.50
2018-05-17T18:49:49.082Z,14.30
2018-05-17T18:52:25.979Z,14.30
2018-05-17T18:55:02.312Z,14.30
2018-05-17T18:58:02.054Z,14.20
2018-05-17T19:00:33.369Z,14.20
2018-05-17T19:03:23.699Z,14.20
2018-05-17T19:05:58.950Z,14.00
2018-05-17T19:08:45.884Z,14.10
2018-05-17T19:11:24.775Z,13.90
2018-05-17T19:14:06.311Z,14.00
2018-05-17T19:16:52.902Z,14.10
2018-05-17T19:19:23.251Z,14.10
2018-05-17T19:22:02.673Z,14.10
2018-05-17T19:24:57.895Z,14.10
2018-05-17T19:27:29.644Z,14.00
2018-05-17T19:30:02.776Z,14.00
2018-05-17T19:32:32.103Z,14.00
2018-05-17T19:35:01.338Z,13.90
2018-05-17T19:37:29.651Z,13.90
2018-05-17T19:39:59.010Z,13.90
2018-05-17T19:42:34.882Z,13.90
2018-05-17T19:45:05.851Z,13.90
2018-05-17T19:47:35.140Z,13.80
2018-05-17T19:50:10.858Z,13.80
2018-05-17T19:52:43.783Z,13.80
2018-05-17T19:55:12.088Z,13.80
2018-05-17T19:57:46.633Z,13.70
2018-05-17T20:00:14.986Z,13.70
2018-05-17T20:02:45.409Z,13.70
2018-05-17T20:05:14.510Z,13.70
2018-05-17T20:07:47.920Z,13.70
2018-05-17T20:10:16.779Z,13.70
2018-05-17T20:12:45.932Z,13.70
2018-05-17T20:15:18.834Z,13.70
2018-05-17T20:17:52.165Z,13.70
2018-05-17T20:20:25.123Z,13.60
2018-05-17T20:22:56.349Z,13.60
2018-05-17T20:25:25.337Z,13.60
2018-05-17T20:27:55.527Z,13.60
2018-05-17T20:30:32.373Z,13.50
2018-05-17T20:33:18.952Z,13.50
2018-05-17T20:35:51.435Z,13.50
2018-05-17T20:38:21.758Z,13.50
2018-05-17T20:40:51.396Z,13.40
2018-05-17T20:43:19.680Z,13.40
2018-05-17T20:45:50.298Z,13.40
2018-05-17T20:48:18.565Z,13.40
2018-05-17T20:50:48.872Z,13.40
2018-05-17T20:53:17.156Z,13.40
2018-05-17T20:55:46.576Z,13.40
2018-05-17T20:58:17.058Z,13.40
2018-05-17T21:00:46.453Z,13.30
2018-05-17T21:03:28.955Z,13.30
2018-05-17T21:05:59.078Z,13.30
2018-05-17T21:08:28.356Z,13.30
2018-05-17T21:10:58.321Z,13.20
2018-05-17T21:13:26.615Z,13.20
2018-05-17T21:15:59.138Z,13.20
2018-05-17T21:18:29.399Z,13.10
2018-05-17T21:20:58.759Z,13.00
2018-05-17T21:23:34.155Z,12.90
2018-05-17T21:26:07.271Z,12.90
2018-05-17T21:28:35.556Z,12.90
2018-05-17T21:31:06.075Z,12.90
2018-05-17T21:33:37.876Z,12.80
2018-05-17T21:36:10.763Z,12.80
2018-05-17T21:38:44.019Z,12.80
2018-05-17T21:41:13.719Z,12.80
2018-05-17T21:43:48.786Z,12.80
2018-05-17T21:46:18.334Z,12.70
2018-05-17T21:49:05.904Z,12.60
2018-05-17T21:51:37.651Z,12.60
2018-05-17T21:54:06.004Z,12.50
2018-05-17T21:56:48.306Z,12.40
2018-05-17T21:59:20.706Z,12.40
2018-05-17T22:01:54.860Z,12.30
2018-05-17T22:04:26.245Z,12.20
2018-05-17T22:06:59.492Z,12.10
2018-05-17T22:09:48.039Z,11.90
2018-05-17T22:12:21.118Z,11.90
2018-05-17T22:14:50.267Z,11.90
2018-05-17T22:17:20.345Z,11.90
2018-05-17T22:20:00.655Z,11.80
2018-05-17T22:22:40.891Z,11.80
2018-05-17T22:25:15.883Z,11.80
2018-05-17T22:27:49.380Z,11.90
2018-05-17T22:30:23.520Z,11.90
2018-05-17T22:32:52.040Z,11.90
2018-05-17T22:35:20.345Z,11.80
2018-05-17T22:38:03.134Z,11.80
2018-05-17T22:40:38.870Z,11.90
2018-05-17T22:43:08.235Z,11.80
2018-05-17T22:45:45.642Z,11.70
2018-05-17T22:48:21.502Z,11.70
2018-05-17T22:50:51.354Z,11.70
2018-05-17T22:53:19.680Z,11.60
2018-05-17T22:55:49.487Z,11.60
2018-05-17T22:58:34.654Z,11.50
2018-05-17T23:01:04.751Z,11.50
2018-05-17T23:03:33.007Z,11.40
2018-05-17T23:06:11.453Z,11.40
2018-05-17T23:08:46.299Z,11.30
2018-05-17T23:11:16.619Z,11.30
2018-05-17T23:13:47.658Z,11.20
2018-05-17T23:16:20.011Z,11.10
2018-05-17T23:18:49.787Z,11.10
2018-05-17T23:21:22.623Z,11.10
2018-05-17T23:23:55.284Z,11.10
2018-05-17T23:26:24.628Z,11.10
2018-05-17T23:28:56.044Z,11.10
2018-05-17T23:31:27.107Z,11.10
2018-05-17T23:33:55.347Z,11.00
2018-05-17T23:36:23.625Z,11.10
2018-05-17T23:38:53.047Z,11.10
2018-05-17T23:41:43.704Z,11.20
2018-05-17T23:44:16.720Z,11.10
2018-05-17T23:46:45.219Z,11.20
2018-05-17T23:49:20.845Z,11.10
2018-05-17T23:51:49.124Z,11.00
2018-05-17T23:54:17.379Z,11.00
2018-05-17T23:56:56.303Z,11.00
2018-05-17T23:59:25.629Z,10.90
